createdAt,value
2023-03-17T00:00:22.514Z,101356.19
2023-03-17T00:02:59.845Z,101358.69
2023-03-17T00:05:37.215Z,101350.12
2023-03-17T00:08:19.461Z,101353.22
2023-03-17T00:10:56.353Z,101348.87
2023-03-17T00:13:32.176Z,101352.78
2023-03-17T00:16:12.968Z,101348.81
2023-03-17T00:18:48.416Z,101352.00
2023-03-17T00:21:27.339Z,101348.75
2023-03-17T00:24:02.192Z,101360.16
2023-03-17T00:26:36.422Z,101357.25
2023-03-17T00:29:11.187Z,101353.75
2023-03-17T00:31:46.431Z,101347.25
2023-03-17T00:34:21.522Z,101347.91
2023-03-17T00:36:57.413Z,101343.09
2023-03-17T00:39:32.093Z,101346.72
2023-03-17T00:42:06.990Z,101346.50
2023-03-17T00:44:41.658Z,101344.25
2023-03-17T00:47:16.362Z,101315.22
2023-03-17T00:49:50.968Z,101318.37
2023-03-17T00:52:27.609Z,101333.78
2023-03-17T00:55:02.335Z,101334.31
2023-03-17T00:57:37.118Z,101335.16
2023-03-17T01:00:31.820Z,101336.03
2023-03-17T01:03:06.511Z,101330.47
2023-03-17T01:05:42.686Z,101328.37
2023-03-17T01:08:18.459Z,101332.19
2023-03-17T01:10:53.075Z,101329.66
2023-03-17T01:13:27.672Z,101336.19
2023-03-17T01:16:02.757Z,101330.44
2023-03-17T01:18:37.208Z,101331.69
2023-03-17T01:21:12.782Z,101332.63
2023-03-17T01:23:48.441Z,101338.28
2023-03-17T01:26:25.943Z,101338.16
2023-03-17T01:29:01.389Z,101346.88
2023-03-17T01:31:36.390Z,101334.16
2023-03-17T01:34:12.743Z,101335.28
2023-03-17T01:36:47.565Z,101343.28
2023-03-17T01:39:23.308Z,101341.75
2023-03-17T01:42:01.455Z,101334.66
2023-03-17T01:44:37.190Z,101338.56
2023-03-17T01:47:11.888Z,101345.00
2023-03-17T01:49:46.358Z,101341.97
2023-03-17T01:52:23.013Z,101351.66
2023-03-17T01:55:05.046Z,101345.47
2023-03-17T01:57:42.560Z,101344.69
2023-03-17T02:00:19.954Z,101347.78
2023-03-17T02:02:56.918Z,101345.44
2023-03-17T02:05:33.147Z,101340.78
2023-03-17T02:08:12.451Z,101342.75
2023-03-17T02:10:50.739Z,101342.91
2023-03-17T02:13:25.585Z,101344.47
2023-03-17T02:16:00.632Z,101343.50
2023-03-17T02:18:35.204Z,101350.41
2023-03-17T02:21:41.070Z,101352.28
2023-03-17T02:24:23.627Z,101351.25
2023-03-17T02:27:02.711Z,101348.97
2023-03-17T02:29:37.988Z,101354.47
2023-03-17T02:32:12.594Z,101356.25
2023-03-17T02:34:47.994Z,101353.16
2023-03-17T02:37:23.909Z,101355.44
2023-03-17T02:40:01.229Z,101348.38
2023-03-17T02:42:36.744Z,101358.75
2023-03-17T02:45:12.814Z,101367.88
2023-03-17T02:47:48.101Z,101371.28
2023-03-17T02:50:25.366Z,101369.06
2023-03-17T02:53:01.535Z,101374.94
2023-03-17T02:55:35.784Z,101374.84
2023-03-17T02:58:10.534Z,101374.00
2023-03-17T03:00:44.883Z,101364.47
2023-03-17T03:03:19.408Z,101373.31
2023-03-17T03:05:53.739Z,101372.16
2023-03-17T03:08:29.675Z,101379.59
2023-03-17T03:11:05.075Z,101378.12
2023-03-17T03:13:39.668Z,101378.69
2023-03-17T03:16:14.626Z,101371.81
2023-03-17T03:18:49.667Z,101354.97
2023-03-17T03:21:23.856Z,101348.44
2023-03-17T03:24:00.250Z,101347.41
2023-03-17T03:26:34.467Z,101348.78
2023-03-17T03:29:09.203Z,101358.22
2023-03-17T03:31:43.763Z,101345.84
2023-03-17T03:34:18.438Z,101357.53
2023-03-17T03:36:52.733Z,101370.25
2023-03-17T03:39:28.733Z,101378.91
2023-03-17T03:42:02.957Z,101371.94
2023-03-17T03:44:37.828Z,101365.22
2023-03-17T03:47:12.268Z,101366.25
2023-03-17T03:49:46.919Z,101373.63
2023-03-17T03:52:21.190Z,101377.72
2023-03-17T03:54:57.114Z,101373.03
2023-03-17T03:57:31.421Z,101362.31
2023-03-17T04:00:08.023Z,101366.66
2023-03-17T04:02:46.904Z,101373.75
2023-03-17T04:05:21.752Z,101374.78
2023-03-17T04:07:56.198Z,101363.66
2023-03-17T04:10:32.926Z,101366.06
2023-03-17T04:13:08.540Z,101371.66
2023-03-17T04:15:43.203Z,101363.13
2023-03-17T04:18:17.609Z,101356.19
2023-03-17T04:20:52.230Z,101345.56
2023-03-17T04:23:26.634Z,101346.53
2023-03-17T04:26:04.212Z,101349.94
2023-03-17T04:28:38.670Z,101364.78
2023-03-17T04:31:13.795Z,101358.66
2023-03-17T04:33:48.268Z,101355.28
2023-03-17T04:36:24.566Z,101370.91
2023-03-17T04:38:58.756Z,101364.84
2023-03-17T04:41:35.315Z,101370.03
2023-03-17T04:44:09.914Z,101369.44
2023-03-17T04:46:44.442Z,101371.44
2023-03-17T04:49:18.946Z,101367.78
2023-03-17T04:51:53.999Z,101388.19
2023-03-17T04:54:28.631Z,101386.69
2023-03-17T04:57:04.879Z,101387.53
2023-03-17T04:59:39.168Z,101389.31
2023-03-17T05:02:14.081Z,101398.88
2023-03-17T05:04:48.827Z,101399.37
2023-03-17T05:07:23.391Z,101385.94
2023-03-17T05:09:58.038Z,101389.50
2023-03-17T05:12:34.177Z,101398.88
2023-03-17T05:15:10.166Z,101391.53
2023-03-17T05:17:44.844Z,101401.03
2023-03-17T05:20:19.386Z,101397.25
2023-03-17T05:22:53.939Z,101387.69
2023-03-17T05:25:28.183Z,101394.38
2023-03-17T05:28:04.617Z,101402.97
2023-03-17T05:30:39.049Z,101404.66
2023-03-17T05:33:14.647Z,101389.31
2023-03-17T05:35:49.111Z,101393.59
2023-03-17T05:38:25.169Z,101394.16
2023-03-17T05:41:00.096Z,101385.44
2023-03-17T05:43:36.158Z,101389.44
2023-03-17T05:46:11.266Z,101370.97
2023-03-17T05:48:47.114Z,101364.63
2023-03-17T05:51:22.902Z,101375.19
2023-03-17T05:53:57.864Z,101381.63
2023-03-17T05:56:33.950Z,101388.09
2023-03-17T05:59:10.703Z,101375.97
2023-03-17T06:01:45.489Z,101384.06
2023-03-17T06:04:20.155Z,101385.53
2023-03-17T06:06:54.461Z,101387.41
2023-03-17T06:09:29.506Z,101394.69
2023-03-17T06:12:03.725Z,101366.69
2023-03-17T06:14:39.640Z,101367.53
2023-03-17T06:17:14.523Z,101390.16
2023-03-17T06:19:49.567Z,101397.19
2023-03-17T06:22:23.770Z,101385.59
2023-03-17T06:24:58.285Z,101386.22
2023-03-17T06:27:32.603Z,101391.91
2023-03-17T06:30:10.492Z,101403.00
2023-03-17T06:32:44.809Z,101401.88
2023-03-17T06:35:19.490Z,101415.88
2023-03-17T06:37:54.192Z,101420.94
2023-03-17T06:40:29.089Z,101421.66
2023-03-17T06:43:04.453Z,101422.41
2023-03-17T06:45:41.231Z,101429.00
2023-03-17T06:48:15.571Z,101420.09
2023-03-17T06:50:50.243Z,101422.84
2023-03-17T06:53:24.780Z,101423.28
2023-03-17T06:55:59.491Z,101443.78
2023-03-17T06:58:33.805Z,101432.41
2023-03-17T07:02:53.264Z,101437.25
2023-03-17T07:05:28.539Z,101437.25
2023-03-17T07:08:02.899Z,101447.22
2023-03-17T07:10:37.592Z,101441.84
2023-03-17T07:13:12.254Z,101450.06
2023-03-17T07:15:46.825Z,101450.47
2023-03-17T07:18:22.538Z,101441.16
2023-03-17T07:20:57.480Z,101441.53
2023-03-17T07:23:31.849Z,101446.63
2023-03-17T07:26:06.717Z,101448.16
2023-03-17T07:28:41.186Z,101448.19
2023-03-17T07:31:15.805Z,101452.47
2023-03-17T07:33:51.954Z,101449.34
2023-03-17T09:28:33.014Z,101374.06
2023-03-17T09:31:11.550Z,101374.06
2023-03-17T09:33:45.841Z,101385.41
2023-03-17T09:36:20.438Z,101387.06
2023-03-17T09:38:54.645Z,101378.12
2023-03-17T09:41:50.451Z,101374.69
2023-03-17T09:44:39.661Z,101380.13
2023-03-17T09:47:27.012Z,101382.44
2023-03-17T09:50:04.496Z,101377.53
2023-03-17T09:52:39.887Z,101367.25
2023-03-17T09:55:23.526Z,101372.13
2023-03-17T09:58:01.059Z,101361.22
2023-03-17T10:00:36.806Z,101362.19
2023-03-17T10:03:13.540Z,101370.34
2023-03-17T10:05:48.172Z,101358.63
2023-03-17T10:08:31.566Z,101355.44
2023-03-17T10:11:15.382Z,101355.50
2023-03-17T10:13:56.116Z,101355.59
2023-03-17T10:16:43.420Z,101353.53
2023-03-17T10:19:27.195Z,101352.28
2023-03-17T10:22:06.425Z,101347.75
2023-03-17T10:24:47.375Z,101352.66
2023-03-17T10:27:21.753Z,101349.47
2023-03-17T10:29:57.136Z,101340.00
2023-03-17T10:32:37.842Z,101341.56
2023-03-17T10:35:13.685Z,101338.16
2023-03-17T10:37:49.054Z,101341.91
2023-03-17T10:40:25.307Z,101337.91
2023-03-17T10:43:06.031Z,101327.88
2023-03-17T10:45:47.971Z,101335.31
2023-03-17T10:48:23.663Z,101322.97
2023-03-17T10:50:59.804Z,101319.44
2023-03-17T10:53:38.799Z,101313.34
2023-03-17T10:56:23.633Z,101318.75
2023-03-17T10:58:59.012Z,101313.62
2023-03-17T11:01:40.033Z,101305.75
2023-03-17T11:04:37.172Z,101303.59
2023-03-17T11:07:18.436Z,101302.91
2023-03-17T11:09:58.465Z,101297.72
2023-03-17T11:12:40.647Z,101296.88
2023-03-17T11:15:17.904Z,101293.16
2023-03-17T11:17:57.272Z,101286.56
2023-03-17T11:20:52.705Z,101289.41
2023-03-17T11:23:51.784Z,101274.63
2023-03-17T11:26:47.368Z,101272.47
2023-03-17T11:29:38.597Z,101264.97
2023-03-17T11:32:27.576Z,101260.97
2023-03-17T11:35:20.935Z,101261.72
2023-03-17T11:38:24.622Z,101259.94
2023-03-17T11:41:18.853Z,101246.06
2023-03-17T11:44:19.651Z,101235.03
2023-03-17T11:47:02.070Z,101233.69
2023-03-17T11:49:38.838Z,101239.81
2023-03-17T11:52:22.385Z,101217.31
2023-03-17T11:55:11.383Z,101213.47
2023-03-17T11:57:49.909Z,101203.50
2023-03-17T12:00:31.421Z,101219.69
2023-03-17T12:03:17.671Z,101217.44
2023-03-17T12:05:58.303Z,101216.03
2023-03-17T12:08:39.154Z,101205.81
2023-03-17T12:11:22.172Z,101194.25
2023-03-17T12:14:00.965Z,101193.78
2023-03-17T12:16:41.948Z,101189.25
2023-03-17T12:19:24.679Z,101187.56
2023-03-17T12:22:04.135Z,101185.19
2023-03-17T12:24:43.837Z,101180.34
2023-03-17T12:27:25.758Z,101177.56
2023-03-17T12:30:03.130Z,101178.72
2023-03-17T12:32:45.989Z,101179.22
2023-03-17T12:35:32.850Z,101165.25
2023-03-17T12:38:13.855Z,101157.72
2023-03-17T12:41:13.280Z,101169.09
2023-03-17T12:44:04.466Z,101159.84
2023-03-17T12:47:05.600Z,101156.25
2023-03-17T12:50:13.736Z,101153.69
2023-03-17T12:53:15.924Z,101147.28
2023-03-17T12:55:53.690Z,101142.06
2023-03-17T12:58:36.506Z,101130.53
2023-03-17T13:01:23.392Z,101130.97
2023-03-17T13:04:14.711Z,101125.88
2023-03-17T13:06:58.244Z,101123.16
2023-03-17T13:09:45.287Z,101113.88
2023-03-17T13:12:58.247Z,101109.06
2023-03-17T13:16:00.012Z,101112.94
2023-03-17T13:19:07.563Z,101102.38
2023-03-17T13:21:46.707Z,101109.31
2023-03-17T13:24:25.276Z,101115.06
2023-03-17T13:27:02.167Z,101111.97
2023-03-17T13:29:50.260Z,101117.91
2023-03-17T13:32:40.781Z,101107.56
2023-03-17T13:35:20.257Z,101109.00
2023-03-17T13:38:37.166Z,101093.00
2023-03-17T13:41:32.641Z,101102.56
2023-03-17T13:44:25.260Z,101090.25
2023-03-17T13:47:17.414Z,101091.69
2023-03-17T13:49:57.221Z,101085.06
2023-03-17T13:52:39.442Z,101080.81
2023-03-17T13:55:41.029Z,101094.13
2023-03-17T13:58:26.465Z,101094.13
2023-03-17T14:01:06.832Z,101090.41
2023-03-17T14:03:45.331Z,101084.25
2023-03-17T14:06:21.188Z,101087.87
2023-03-17T14:09:00.848Z,101072.88
2023-03-17T14:11:38.910Z,101062.88
2023-03-17T14:14:32.448Z,101066.69
2023-03-17T14:17:14.880Z,101064.78
2023-03-17T14:20:08.769Z,101065.28
2023-03-17T14:22:45.762Z,101044.59
2023-03-17T14:25:23.599Z,101033.53
2023-03-17T14:28:00.295Z,101041.09
2023-03-17T14:30:37.378Z,101033.91
2023-03-17T14:33:24.758Z,101034.16
2023-03-17T14:36:01.836Z,101022.44
2023-03-17T14:38:38.526Z,101035.69
2023-03-17T14:41:20.894Z,101022.84
2023-03-17T14:43:59.279Z,101018.41
2023-03-17T14:46:37.248Z,101018.75
2023-03-17T14:49:17.994Z,101008.00
2023-03-17T14:51:54.344Z,101007.06
2023-03-17T14:54:33.311Z,101008.69
2023-03-17T14:57:15.863Z,100996.78
2023-03-17T14:59:58.268Z,100997.41
2023-03-17T15:03:31.730Z,100988.66
2023-03-17T15:06:22.729Z,100988.66
2023-03-17T15:09:00.460Z,100992.47
2023-03-17T15:11:39.691Z,100996.72
2023-03-17T15:14:21.311Z,100986.03
2023-03-17T15:16:57.351Z,100989.25
2023-03-17T15:19:41.508Z,100988.22
2023-03-17T15:22:25.904Z,100986.22
2023-03-17T15:25:02.469Z,100976.34
2023-03-17T15:27:36.957Z,100977.16
2023-03-17T15:30:12.892Z,100975.28
2023-03-17T15:32:53.037Z,100966.53
2023-03-17T15:35:29.450Z,100965.16
2023-03-17T15:38:04.499Z,100964.56
2023-03-17T15:40:38.944Z,100966.41
2023-03-17T15:43:16.409Z,100952.13
2023-03-17T15:45:56.634Z,100964.69
2023-03-17T15:48:32.854Z,100965.63
2023-03-17T15:51:08.678Z,100962.50
2023-03-17T15:53:43.298Z,100964.28
2023-03-17T15:56:20.532Z,100954.94
2023-03-17T15:58:55.578Z,100965.75
2023-03-17T16:01:30.137Z,100955.06
2023-03-17T16:04:05.612Z,100960.19
2023-03-17T16:06:41.383Z,100958.53
2023-03-17T16:09:17.978Z,100952.16
2023-03-17T16:11:52.454Z,100967.44
2023-03-17T16:14:27.956Z,100965.41
2023-03-17T16:17:02.617Z,100968.16
2023-03-17T16:19:37.180Z,100971.91
2023-03-17T16:22:36.620Z,100974.91
2023-03-17T16:25:21.607Z,100987.34
2023-03-17T16:27:58.047Z,100981.28
2023-03-17T16:30:35.978Z,100987.06
2023-03-17T16:33:17.039Z,100992.38
2023-03-17T16:35:53.525Z,100989.00
2023-03-17T16:38:31.963Z,100982.84
2023-03-17T16:41:09.580Z,100982.31
2023-03-17T16:43:46.402Z,100987.72
2023-03-17T16:46:22.668Z,100983.97
2023-03-17T16:48:57.269Z,100991.69
2023-03-17T16:51:32.285Z,100989.47
2023-03-17T16:54:08.083Z,100985.25
2023-03-17T16:56:43.518Z,100992.41
2023-03-17T16:59:21.985Z,100992.50
2023-03-17T17:01:56.713Z,100994.34
2023-03-17T17:04:31.314Z,100990.84
2023-03-17T17:07:06.261Z,100987.38
2023-03-17T17:09:42.270Z,100990.22
2023-03-17T17:12:17.097Z,100984.06
2023-03-17T17:14:51.638Z,100981.50
2023-03-17T17:17:26.420Z,100979.19
2023-03-17T17:20:02.229Z,100983.31
2023-03-17T17:22:36.962Z,100979.03
2023-03-17T17:25:12.831Z,100981.63
2023-03-17T17:27:48.255Z,100997.16
2023-03-17T17:30:25.731Z,100985.50
2023-03-17T17:33:02.010Z,100983.53
2023-03-17T17:35:36.754Z,100981.66
2023-03-17T17:38:18.665Z,100971.28
2023-03-17T17:40:55.677Z,100974.28
2023-03-17T17:43:30.872Z,100964.94
2023-03-17T17:46:05.545Z,100966.06
2023-03-17T17:48:41.876Z,100977.53
2023-03-17T17:51:16.715Z,100984.94
2023-03-17T17:53:52.736Z,100975.50
2023-03-17T17:56:28.411Z,100976.28
2023-03-17T17:59:03.735Z,100972.59
2023-03-17T18:01:39.009Z,100974.12
2023-03-17T18:04:13.960Z,100979.84
2023-03-17T18:06:48.642Z,100979.66
2023-03-17T18:09:23.770Z,100973.63
2023-03-17T18:11:59.963Z,100983.81
2023-03-17T18:14:34.913Z,100982.09
2023-03-17T18:17:11.052Z,100982.47
2023-03-17T18:19:45.944Z,100980.03
2023-03-17T18:22:21.596Z,100976.78
2023-03-17T18:24:56.790Z,100983.41
2023-03-17T18:27:35.735Z,100984.53
2023-03-17T18:30:13.778Z,100981.66
2023-03-17T18:32:49.867Z,100976.53
2023-03-17T18:35:28.233Z,100970.78
2023-03-17T18:38:03.284Z,100975.97
2023-03-17T18:40:38.326Z,100973.91
2023-03-17T18:43:14.094Z,100971.50
2023-03-17T18:45:48.864Z,100960.03
2023-03-17T18:48:31.233Z,100974.31
2023-03-17T18:51:06.417Z,100969.81
2023-03-17T18:53:41.259Z,100961.59
2023-03-17T18:56:16.993Z,100974.44
2023-03-17T18:58:52.903Z,100976.09
2023-03-17T19:01:32.869Z,100979.31
2023-03-17T19:04:07.851Z,100971.84
2023-03-17T19:06:42.919Z,100972.00
2023-03-17T19:09:17.703Z,100966.16
2023-03-17T19:11:52.872Z,100959.00
2023-03-17T19:14:28.957Z,100966.56
2023-03-17T19:17:04.370Z,100962.37
2023-03-17T19:19:40.116Z,100967.66
2023-03-17T19:22:18.059Z,100965.56
2023-03-17T19:24:55.525Z,100971.81
2023-03-17T19:27:32.387Z,100966.78
2023-03-17T19:30:10.362Z,100970.09
2023-03-17T19:32:45.342Z,100967.19
2023-03-17T19:35:20.101Z,100973.28
2023-03-17T19:37:55.297Z,100964.22
2023-03-17T19:40:30.195Z,100961.88
2023-03-17T19:43:06.361Z,100959.50
2023-03-17T19:45:42.771Z,100968.00
2023-03-17T19:48:17.822Z,100957.19
2023-03-17T19:50:52.085Z,100957.28
2023-03-17T19:53:27.279Z,100943.09
2023-03-17T19:56:02.387Z,100942.19
2023-03-17T19:58:37.873Z,100937.75
2023-03-17T20:01:14.807Z,100939.00
2023-03-17T20:03:49.926Z,100946.47
2023-03-17T20:06:24.564Z,100943.31
2023-03-17T20:08:59.382Z,100951.00
2023-03-17T20:11:34.208Z,100950.28
2023-03-17T20:14:09.129Z,100949.13
2023-03-17T20:16:45.165Z,100949.50
2023-03-17T20:19:19.989Z,100944.41
2023-03-17T20:21:54.537Z,100951.13
2023-03-17T20:24:31.530Z,100942.34
2023-03-17T20:27:12.725Z,100953.56
2023-03-17T20:29:48.655Z,100953.91
2023-03-17T20:32:34.494Z,100950.81
2023-03-17T20:35:10.288Z,100948.16
2023-03-17T20:37:45.103Z,100952.84
2023-03-17T20:40:23.384Z,100943.31
2023-03-17T20:42:57.662Z,100947.94
2023-03-17T20:45:32.580Z,100940.47
2023-03-17T20:48:10.871Z,100947.84
2023-03-17T20:50:50.975Z,100937.69
2023-03-17T20:53:25.518Z,100927.75
2023-03-17T20:56:03.373Z,100935.00
2023-03-17T20:58:47.077Z,100923.34
2023-03-17T21:01:23.731Z,100925.06
2023-03-17T21:04:00.762Z,100929.06
2023-03-17T21:06:38.110Z,100932.22
2023-03-17T21:09:13.386Z,100938.25
2023-03-17T21:11:49.327Z,100942.22
2023-03-17T21:14:26.184Z,100933.34
2023-03-17T21:17:03.975Z,100930.75
2023-03-17T21:19:39.870Z,100925.72
2023-03-17T21:22:15.234Z,100920.31
2023-03-17T21:24:49.653Z,100926.97
2023-03-17T21:27:24.287Z,100919.19
2023-03-17T21:29:58.681Z,100923.00
2023-03-17T21:32:33.419Z,100921.09
2023-03-17T21:35:14.720Z,100919.19
2023-03-17T21:37:50.601Z,100923.97
2023-03-17T21:40:31.181Z,100920.47
2023-03-17T21:43:06.061Z,100924.87
2023-03-17T21:45:40.697Z,100928.75
2023-03-17T21:48:15.205Z,100927.59
2023-03-17T21:50:50.923Z,100920.09
2023-03-17T21:53:25.874Z,100929.47
2023-03-17T21:56:00.120Z,100911.94
2023-03-17T21:58:34.967Z,100911.03
2023-03-17T22:01:09.503Z,100912.38
2023-03-17T22:03:44.618Z,100907.19
2023-03-17T22:06:22.077Z,100904.00
2023-03-17T22:08:56.711Z,100913.84
2023-03-17T22:11:31.385Z,100921.81
2023-03-17T22:14:06.056Z,100915.13
2023-03-17T22:16:40.279Z,100928.19
2023-03-17T22:19:15.850Z,100916.19
2023-03-17T22:21:51.879Z,100914.09
2023-03-17T22:24:26.712Z,100914.56
2023-03-17T22:27:01.290Z,100912.19
2023-03-17T22:29:36.836Z,100917.06
2023-03-17T22:32:11.472Z,100913.59
2023-03-17T22:34:45.966Z,100913.09
2023-03-17T22:37:21.557Z,100924.41
2023-03-17T22:39:56.150Z,100918.22
2023-03-17T22:42:31.148Z,100919.41
2023-03-17T22:45:06.452Z,100910.78
2023-03-17T22:47:40.710Z,100920.28
2023-03-17T22:50:15.743Z,100932.69
2023-03-17T22:52:51.655Z,100915.50
2023-03-17T22:55:26.264Z,100916.25
2023-03-17T22:58:00.488Z,100919.34
2023-03-17T23:03:03.881Z,100907.91
2023-03-17T23:05:38.988Z,100907.91
2023-03-17T23:08:14.007Z,100911.06
2023-03-17T23:10:50.026Z,100909.88
2023-03-17T23:13:25.267Z,100919.19
2023-03-17T23:16:00.038Z,100907.91
2023-03-17T23:18:36.045Z,100904.87
2023-03-17T23:21:11.334Z,100908.41
2023-03-17T23:23:45.614Z,100903.31
2023-03-17T23:26:20.554Z,100902.91
2023-03-17T23:28:55.040Z,100897.69
2023-03-17T23:31:30.383Z,100891.91
2023-03-17T23:34:09.219Z,100893.12
2023-03-17T23:36:43.768Z,100894.06
2023-03-17T23:39:18.019Z,100886.44
2023-03-17T23:41:52.634Z,100882.84
2023-03-17T23:44:27.253Z,100877.56
2023-03-17T23:47:01.844Z,100869.22
2023-03-17T23:49:38.325Z,100874.59
2023-03-17T23:52:13.315Z,100885.44
2023-03-17T23:54:47.546Z,100881.53
2023-03-17T23:57:22.951Z,100877.63
2023-03-17T23:59:57.250Z,100872.56
